Terminal Aerodrome Forecast
Issued by NWS Sioux Falls, SD

Home | Current Version | Previous Version | Graphics & Text | Print | Product List | Glossary On
Versions: 1 2 3 4 5 6 7 8 9 10 11 12 13 14 15 16 17 18
000
FTUS43 KFSD 180540
TAFSUX
TAF
KSUX 180540Z 1806/1906 13009KT P6SM SCT250
     FM181400 15012G20KT P6SM BKN250
     FM181700 15015G25KT P6SM SCT050 BKN150
     FM182100 15018G30KT P6SM BKN050=

USA.gov is the U.S. government's official web portal to all federal, state and local government web resources and services.